Time,TemperatureF,DewpointF,PressureIn,WindDirection,WindDirectionDegrees,WindSpeedMPH,WindSpeedGustMPH,Humidity,HourlyPrecipIn,Conditions,Clouds,dailyrainin,SoftwareType,DateUTC
2013-01-23 00:02:00,50.0,42.0,29.79,WNW,290,2.0,3.0,74,0.00,,,0.46,,2013-01-22 23:02:00,
2013-01-23 00:12:00,50.0,42.0,29.79,WNW,290,2.0,3.0,74,0.00,,,0.46,,2013-01-22 23:12:00,
2013-01-23 00:22:00,49.0,41.0,29.79,NNW,348,2.0,5.0,75,0.00,,,0.42,,2013-01-22 23:22:00,
2013-01-23 00:32:00,49.0,41.0,29.79,NNW,348,0.0,3.0,75,0.00,,,0.42,,2013-01-22 23:32:00,
2013-01-23 00:42:00,49.0,41.0,29.79,NNW,348,0.0,3.0,75,0.00,,,0.42,,2013-01-22 23:42:00,
2013-01-23 00:53:00,48.0,41.0,29.79,North,355,3.0,3.0,77,0.00,,,0.42,,2013-01-22 23:53:00,
2013-01-23 01:02:00,49.0,42.0,29.79,North,355,3.0,3.0,77,0.00,,,0.42,,2013-01-23 00:02:00,
2013-01-23 01:12:00,49.0,42.0,29.79,North,355,3.0,3.0,77,0.00,,,0.42,,2013-01-23 00:12:00,
2013-01-23 01:22:00,50.0,42.0,29.79,North,355,2.0,3.0,75,0.00,,,0.42,,2013-01-23 00:22:00,
2013-01-23 01:32:00,48.0,41.0,29.79,North,355,2.0,3.0,77,0.00,,,0.42,,2013-01-23 00:32:00,
2013-01-23 01:42:00,48.0,41.0,29.79,North,355,2.0,3.0,77,0.00,,,0.42,,2013-01-23 00:42:00,
2013-01-23 01:52:00,49.0,42.0,29.79,North,355,3.0,3.0,76,0.00,,,0.42,,2013-01-23 00:52:00,
2013-01-23 02:02:00,48.0,41.0,29.79,ENE,68,3.0,4.0,78,0.00,,,0.42,,2013-01-23 01:02:00,
2013-01-23 02:12:00,48.0,41.0,29.79,ENE,68,3.0,4.0,78,0.00,,,0.42,,2013-01-23 01:12:00,
2013-01-23 02:22:00,48.0,41.0,29.79,ENE,68,3.0,4.0,78,0.00,,,0.42,,2013-01-23 01:22:00,
2013-01-23 02:32:00,49.0,42.0,29.79,ENE,74,3.0,4.0,78,0.00,,,0.29,,2013-01-23 01:32:00,
2013-01-23 02:42:00,49.0,42.0,29.79,ENE,74,3.0,4.0,78,0.00,,,0.29,,2013-01-23 01:42:00,
2013-01-23 02:53:00,49.0,42.0,29.80,East,92,3.0,6.0,78,0.00,,,0.29,,2013-01-23 01:53:00,
2013-01-23 03:03:00,49.0,42.0,29.80,East,92,3.0,5.0,78,0.00,,,0.29,,2013-01-23 02:03:00,
2013-01-23 03:12:00,49.0,42.0,29.80,East,92,3.0,5.0,78,0.00,,,0.29,,2013-01-23 02:12:00,
2013-01-23 03:22:00,49.0,42.0,29.81,East,92,3.0,4.0,78,0.00,,,0.29,,2013-01-23 02:22:00,
2013-01-23 03:32:00,50.0,44.0,29.80,East,92,3.0,4.0,79,0.00,,,0.29,,2013-01-23 02:32:00,
2013-01-23 03:42:00,50.0,44.0,29.80,East,92,3.0,4.0,79,0.00,,,0.29,,2013-01-23 02:42:00,
2013-01-23 03:53:00,50.0,44.0,29.80,East,92,4.0,6.0,79,0.00,,,0.28,,2013-01-23 02:53:00,
2013-01-23 04:02:00,50.0,43.0,29.80,East,98,7.0,7.0,78,0.00,,,0.28,,2013-01-23 03:02:00,
2013-01-23 04:12:00,50.0,43.0,29.80,East,98,7.0,7.0,78,0.00,,,0.28,,2013-01-23 03:12:00,
2013-01-23 04:22:00,50.0,44.0,29.80,East,101,6.0,7.0,81,0.00,,,0.28,,2013-01-23 03:22:00,
2013-01-23 04:32:00,50.0,45.0,29.80,ESE,115,4.0,8.0,82,0.00,,,0.28,,2013-01-23 03:32:00,
2013-01-23 04:42:00,50.0,45.0,29.80,ESE,115,4.0,8.0,82,0.00,,,0.28,,2013-01-23 03:42:00,
2013-01-23 04:53:00,50.0,45.0,29.80,East,93,6.0,7.0,83,0.00,,,0.28,,2013-01-23 03:53:00,
2013-01-23 05:02:00,49.0,44.0,29.79,East,96,8.0,9.0,83,0.00,,,0.28,,2013-01-23 04:02:00,
2013-01-23 05:12:00,49.0,44.0,29.79,East,96,8.0,9.0,83,0.00,,,0.28,,2013-01-23 04:12:00,
2013-01-23 05:22:00,49.0,44.0,29.80,East,101,5.0,9.0,84,0.01,,,0.29,,2013-01-23 04:22:00,
2013-01-23 05:32:00,49.0,45.0,29.79,ESE,103,7.0,8.0,85,0.01,,,0.29,,2013-01-23 04:32:00,
2013-01-23 05:42:00,49.0,45.0,29.79,ESE,103,7.0,8.0,85,0.01,,,0.29,,2013-01-23 04:42:00,
2013-01-23 05:53:00,50.0,45.0,29.79,East,97,8.0,11.0,84,0.01,,,0.29,,2013-01-23 04:53:00,
2013-01-23 06:03:00,50.0,45.0,29.79,East,94,4.0,12.0,84,0.01,,,0.29,,2013-01-23 05:03:00,
2013-01-23 06:12:00,50.0,45.0,29.79,East,94,4.0,12.0,84,0.01,,,0.29,,2013-01-23 05:12:00,
2013-01-23 06:22:00,50.0,45.0,29.79,East,94,9.0,10.0,84,0.00,,,0.29,,2013-01-23 05:22:00,
2013-01-23 06:32:00,50.0,45.0,29.79,East,93,6.0,10.0,84,0.00,,,0.29,,2013-01-23 05:32:00,
2013-01-23 06:42:00,50.0,45.0,29.79,East,93,6.0,10.0,84,0.00,,,0.29,,2013-01-23 05:42:00,
2013-01-23 06:52:00,50.0,45.0,29.79,East,98,3.0,10.0,83,0.00,,,0.29,,2013-01-23 05:52:00,
2013-01-23 07:02:00,50.0,45.0,29.79,East,89,5.0,9.0,83,0.00,,,0.29,,2013-01-23 06:02:00,
2013-01-23 07:12:00,50.0,45.0,29.79,East,89,5.0,9.0,83,0.00,,,0.29,,2013-01-23 06:12:00,
2013-01-23 07:22:00,51.0,46.0,29.79,SE,144,2.0,8.0,83,0.00,,,0.29,,2013-01-23 06:22:00,
2013-01-23 07:32:00,51.0,46.0,29.79,ESE,121,6.0,7.0,83,0.00,,,0.29,,2013-01-23 06:32:00,
2013-01-23 07:42:00,51.0,46.0,29.79,ESE,121,6.0,7.0,83,0.00,,,0.29,,2013-01-23 06:42:00,
2013-01-23 07:52:00,53.0,45.0,29.80,SSW,202,5.0,10.0,75,0.00,,,0.29,,2013-01-23 06:52:00,
2013-01-23 08:02:00,53.0,46.0,29.80,SW,217,3.0,8.0,76,0.00,,,0.29,,2013-01-23 07:02:00,
2013-01-23 08:11:00,53.0,46.0,29.80,SW,217,3.0,8.0,76,0.00,,,0.29,,2013-01-23 07:11:00,
2013-01-23 08:22:00,53.0,47.0,29.80,South,169,7.0,12.0,79,0.00,,,0.29,,2013-01-23 07:22:00,
2013-01-23 08:32:00,53.0,46.0,29.80,WSW,251,5.0,18.0,76,0.01,,,0.30,,2013-01-23 07:32:00,
2013-01-23 08:42:00,53.0,46.0,29.80,WSW,251,5.0,18.0,76,0.01,,,0.30,,2013-01-23 07:42:00,
2013-01-23 08:52:00,49.0,43.0,29.81,West,271,5.0,24.0,79,0.11,,,0.40,,2013-01-23 07:52:00,
2013-01-23 09:01:00,49.0,43.0,29.80,West,277,0.0,1.0,81,0.12,,,0.41,,2013-01-23 08:01:00,
2013-01-23 09:11:00,49.0,43.0,29.80,West,277,0.0,1.0,81,0.12,,,0.41,,2013-01-23 08:11:00,
2013-01-23 09:22:00,50.0,44.0,29.80,West,277,3.0,3.0,80,0.12,,,0.41,,2013-01-23 08:22:00,
2013-01-23 09:32:00,51.0,45.0,29.80,West,277,2.0,3.0,79,0.12,,,0.41,,2013-01-23 08:32:00,
2013-01-23 09:42:00,51.0,45.0,29.80,West,277,2.0,3.0,79,0.12,,,0.41,,2013-01-23 08:42:00,
2013-01-23 09:53:00,54.0,48.0,29.80,South,183,13.0,13.0,80,0.09,,,0.41,,2013-01-23 08:53:00,
2013-01-23 10:02:00,54.0,48.0,29.80,SSW,205,9.0,14.0,79,0.00,,,0.41,,2013-01-23 09:02:00,
2013-01-23 10:12:00,54.0,48.0,29.80,SSW,205,9.0,14.0,79,0.00,,,0.41,,2013-01-23 09:12:00,
2013-01-23 10:22:00,54.0,47.0,29.80,SSE,154,7.0,10.0,78,0.00,,,0.41,,2013-01-23 09:22:00,
2013-01-23 10:32:00,55.0,48.0,29.80,SSW,196,5.0,14.0,78,0.00,,,0.41,,2013-01-23 09:32:00,
2013-01-23 10:42:00,55.0,48.0,29.80,SSW,196,5.0,14.0,78,0.00,,,0.41,,2013-01-23 09:42:00,
2013-01-23 10:53:00,55.0,48.0,29.80,South,169,6.0,14.0,76,0.00,,,0.41,,2013-01-23 09:53:00,
2013-01-23 11:02:00,55.0,47.0,29.79,SSE,153,15.0,17.0,73,0.00,,,0.41,,2013-01-23 10:02:00,
2013-01-23 11:12:00,55.0,47.0,29.79,SSE,153,15.0,17.0,73,0.00,,,0.41,,2013-01-23 10:12:00,
2013-01-23 11:22:00,55.0,47.0,29.79,South,184,13.0,18.0,75,0.00,,,0.41,,2013-01-23 10:22:00,
2013-01-23 11:32:00,55.0,47.0,29.79,South,186,5.0,13.0,75,0.00,,,0.41,,2013-01-23 10:32:00,
2013-01-23 11:42:00,55.0,47.0,29.79,South,186,5.0,13.0,75,0.00,,,0.41,,2013-01-23 10:42:00,
2013-01-23 11:52:00,49.0,42.0,29.79,West,266,5.0,14.0,77,0.02,,,0.43,,2013-01-23 10:52:00,
2013-01-23 12:01:00,51.0,44.0,29.78,WSW,254,6.0,14.0,77,0.03,,,0.44,,2013-01-23 11:01:00,
2013-01-23 12:11:00,51.0,44.0,29.78,WSW,254,6.0,14.0,77,0.03,,,0.44,,2013-01-23 11:11:00,
2013-01-23 12:22:00,50.0,44.0,29.76,East,82,4.0,6.0,79,0.04,,,0.45,,2013-01-23 11:22:00,
2013-01-23 12:32:00,53.0,48.0,29.75,SSE,147,4.0,20.0,82,0.04,,,0.45,,2013-01-23 11:32:00,
2013-01-23 12:42:00,53.0,48.0,29.75,SSE,147,4.0,20.0,82,0.04,,,0.45,,2013-01-23 11:42:00,
2013-01-23 12:53:00,54.0,48.0,29.74,South,172,3.0,15.0,80,0.04,,,0.45,,2013-01-23 11:53:00,
2013-01-23 13:02:00,55.0,48.0,29.74,South,169,11.0,21.0,76,0.02,,,0.45,,2013-01-23 12:02:00,
2013-01-23 13:12:00,55.0,48.0,29.74,South,169,11.0,21.0,76,0.02,,,0.45,,2013-01-23 12:12:00,
2013-01-23 13:22:00,55.0,48.0,29.73,South,187,10.0,22.0,76,0.01,,,0.46,,2013-01-23 12:22:00,
2013-01-23 13:33:00,55.0,48.0,29.72,South,190,10.0,22.0,76,0.01,,,0.46,,2013-01-23 12:33:00,
2013-01-23 13:42:00,55.0,48.0,29.72,South,190,10.0,22.0,76,0.01,,,0.46,,2013-01-23 12:42:00,
2013-01-23 13:53:00,55.0,48.0,29.71,SSE,167,10.0,19.0,76,0.01,,,0.46,,2013-01-23 12:53:00,
2013-01-23 14:03:00,55.0,48.0,29.71,SSE,162,12.0,17.0,76,0.01,,,0.46,,2013-01-23 13:03:00,
2013-01-23 14:12:00,55.0,48.0,29.71,SSE,162,12.0,17.0,76,0.01,,,0.46,,2013-01-23 13:12:00,
2013-01-23 14:22:00,55.0,48.0,29.70,South,183,12.0,20.0,78,0.01,,,0.46,,2013-01-23 13:22:00,
2013-01-23 14:33:00,51.0,44.0,29.74,WSW,238,20.0,23.0,77,0.02,,,0.48,,2013-01-23 13:33:00,
2013-01-23 14:42:00,51.0,44.0,29.74,WSW,238,20.0,23.0,77,0.02,,,0.48,,2013-01-23 13:42:00,
2013-01-23 14:53:00,44.0,41.0,29.75,NW,318,7.0,13.0,90,0.29,,,0.75,,2013-01-23 13:53:00,
2013-01-23 15:02:00,45.0,43.0,29.75,NNW,333,4.0,7.0,91,0.38,,,0.84,,2013-01-23 14:02:00,
2013-01-23 15:11:00,45.0,43.0,29.75,NNW,333,4.0,7.0,91,0.38,,,0.84,,2013-01-23 14:11:00,
2013-01-23 15:23:00,45.0,43.0,29.73,North,9,0.0,4.0,92,0.52,,,0.98,,2013-01-23 14:23:00,
2013-01-23 15:33:00,46.0,44.0,29.73,North,9,0.0,0.0,92,0.57,,,1.03,,2013-01-23 14:33:00,
2013-01-23 15:42:00,46.0,44.0,29.73,North,9,0.0,0.0,92,0.57,,,1.03,,2013-01-23 14:42:00,
2013-01-23 15:53:00,46.0,44.0,29.72,North,9,3.0,3.0,92,0.42,,,1.07,,2013-01-23 14:53:00,
2013-01-23 16:02:00,47.0,45.0,29.71,ENE,72,4.0,4.0,93,0.29,,,1.06,,2013-01-23 15:02:00,
2013-01-23 16:12:00,47.0,45.0,29.71,ENE,72,4.0,4.0,93,0.29,,,1.06,,2013-01-23 15:12:00,
2013-01-23 16:22:00,46.0,44.0,29.72,ENE,57,2.0,4.0,93,0.16,,,1.04,,2013-01-23 15:22:00,
2013-01-23 16:32:00,47.0,45.0,29.72,East,97,4.0,10.0,93,0.09,,,1.04,,2013-01-23 15:32:00,
2013-01-23 16:42:00,47.0,45.0,29.72,East,97,4.0,10.0,93,0.09,,,1.04,,2013-01-23 15:42:00,
2013-01-23 16:53:00,46.0,44.0,29.72,ENE,66,10.0,12.0,92,0.04,,,1.05,,2013-01-23 15:53:00,
2013-01-23 17:02:00,46.0,44.0,29.70,ESE,105,9.0,11.0,93,0.04,,,1.07,,2013-01-23 16:02:00,
2013-01-23 17:11:00,46.0,44.0,29.70,ESE,105,9.0,11.0,93,0.04,,,1.07,,2013-01-23 16:11:00,
2013-01-23 17:22:00,47.0,45.0,29.70,East,84,7.0,11.0,93,0.04,,,1.07,,2013-01-23 16:22:00,
2013-01-23 17:32:00,47.0,45.0,29.70,East,94,7.0,10.0,93,0.04,,,1.07,,2013-01-23 16:32:00,
2013-01-23 17:42:00,47.0,45.0,29.70,East,94,7.0,10.0,93,0.04,,,1.07,,2013-01-23 16:42:00,
2013-01-23 17:52:00,47.0,45.0,29.68,East,82,12.0,12.0,93,0.03,,,1.05,,2013-01-23 16:52:00,
2013-01-23 18:02:00,47.0,45.0,29.70,East,100,11.0,16.0,93,0.01,,,1.05,,2013-01-23 17:02:00,
2013-01-23 18:11:00,47.0,45.0,29.70,East,100,11.0,16.0,93,0.01,,,1.05,,2013-01-23 17:11:00,
2013-01-23 18:22:00,46.0,44.0,29.67,ENE,70,12.0,15.0,92,0.00,,,1.00,,2013-01-23 17:22:00,
2013-01-23 18:33:00,46.0,44.0,29.67,East,88,9.0,14.0,92,0.00,,,0.92,,2013-01-23 17:33:00,
2013-01-23 18:42:00,46.0,44.0,29.67,East,88,9.0,14.0,92,0.00,,,0.92,,2013-01-23 17:42:00,
2013-01-23 18:53:00,47.0,45.0,29.66,East,91,5.0,7.0,91,0.00,,,0.90,,2013-01-23 17:53:00,
2013-01-23 19:02:00,47.0,45.0,29.65,ENE,71,6.0,10.0,91,0.00,,,0.90,,2013-01-23 18:02:00,
2013-01-23 19:12:00,47.0,45.0,29.65,ENE,71,6.0,10.0,91,0.00,,,0.90,,2013-01-23 18:12:00,
2013-01-23 19:22:00,48.0,45.0,29.66,ENE,70,6.0,9.0,89,0.00,,,0.90,,2013-01-23 18:22:00,
2013-01-23 19:32:00,48.0,45.0,29.66,ENE,70,6.0,9.0,89,0.00,,,0.90,,2013-01-23 18:32:00,
2013-01-23 19:42:00,48.0,45.0,29.65,ENE,69,1.0,8.0,88,0.00,,,0.90,,2013-01-23 18:42:00,
2013-01-23 19:53:00,45.0,42.0,29.64,NNE,27,3.0,12.0,90,0.00,,,0.87,,2013-01-23 18:53:00,
2013-01-23 20:02:00,46.0,44.0,29.64,NE,38,8.0,8.0,91,0.00,,,0.87,,2013-01-23 19:02:00,
2013-01-23 20:12:00,46.0,44.0,29.64,NE,38,8.0,8.0,91,0.00,,,0.87,,2013-01-23 19:12:00,
2013-01-23 20:22:00,48.0,45.0,29.63,ENE,68,3.0,6.0,90,0.00,,,0.87,,2013-01-23 19:22:00,
2013-01-23 20:32:00,49.0,45.0,29.62,NE,55,5.0,9.0,87,0.00,,,0.87,,2013-01-23 19:32:00,
2013-01-23 20:42:00,49.0,45.0,29.62,NE,55,5.0,9.0,87,0.00,,,0.87,,2013-01-23 19:42:00,
2013-01-23 20:53:00,50.0,46.0,29.62,ENE,74,4.0,9.0,85,0.00,,,0.87,,2013-01-23 19:53:00,
2013-01-23 21:02:00,50.0,45.0,29.61,ENE,70,9.0,9.0,84,0.00,,,0.87,,2013-01-23 20:02:00,
2013-01-23 21:12:00,50.0,45.0,29.61,ENE,70,9.0,9.0,84,0.00,,,0.87,,2013-01-23 20:12:00,
2013-01-23 21:22:00,50.0,45.0,29.60,East,87,5.0,9.0,83,0.00,,,0.87,,2013-01-23 20:22:00,
2013-01-23 21:32:00,50.0,45.0,29.60,East,94,6.0,10.0,82,0.00,,,0.87,,2013-01-23 20:32:00,
2013-01-23 21:42:00,50.0,45.0,29.60,East,94,6.0,10.0,82,0.00,,,0.87,,2013-01-23 20:42:00,
2013-01-23 21:53:00,50.0,45.0,29.61,SSW,204,6.0,14.0,83,0.01,,,0.88,,2013-01-23 20:53:00,
2013-01-23 22:02:00,48.0,44.0,29.62,WNW,290,15.0,23.0,86,0.04,,,0.89,,2013-01-23 21:02:00,
2013-01-23 22:12:00,48.0,44.0,29.62,WNW,290,15.0,23.0,86,0.04,,,0.89,,2013-01-23 21:12:00,
2013-01-23 22:22:00,47.0,44.0,29.61,WNW,284,0.0,6.0,89,0.04,,,0.89,,2013-01-23 21:22:00,
2013-01-23 22:32:00,47.0,44.0,29.60,WNW,284,0.0,3.0,89,0.04,,,0.89,,2013-01-23 21:32:00,
2013-01-23 22:42:00,47.0,44.0,29.60,WNW,284,0.0,3.0,89,0.04,,,0.89,,2013-01-23 21:42:00,
2013-01-23 22:53:00,48.0,45.0,29.60,NNE,28,3.0,3.0,91,0.04,,,0.89,,2013-01-23 21:53:00,
2013-01-23 23:02:00,48.0,45.0,29.60,ENE,64,1.0,4.0,91,0.02,,,0.89,,2013-01-23 22:02:00,
2013-01-23 23:12:00,48.0,45.0,29.60,ENE,64,1.0,4.0,91,0.02,,,0.89,,2013-01-23 22:12:00,
2013-01-23 23:22:00,47.0,44.0,29.59,ENE,76,3.0,4.0,90,0.00,,,0.89,,2013-01-23 22:22:00,
2013-01-23 23:32:00,47.0,45.0,29.59,ENE,76,3.0,4.0,91,0.00,,,0.89,,2013-01-23 22:32:00,
2013-01-23 23:42:00,47.0,45.0,29.59,ENE,76,3.0,4.0,91,0.00,,,0.89,,2013-01-23 22:42:00,
2013-01-23 23:53:00,48.0,45.0,29.59,East,85,5.0,8.0,90,0.00,,,0.89,,2013-01-23 22:53:00,